Braeside, Canada
Current Conditions -  °F | °C
As of 3:00 AM on Saturday 29 Nov 2014 (Local Time) from CYOW Reporting Station
Clear Clear  
Wind Chill:   Ceiling: Unl
Heat Index: 14°   Visibility: 15mi
Dew Point: 10°   Wind: 5mph
Humidity: 86%   Direction: 300°WNW
Pressure: 30.21"   Gusts: NA
Location:  45.47°N, 76.4°W
Report Text: CYOW 290800Z 30004KT 15SM SKC M10/M12 A3021 RMK FROIN SLP237
Loading
Personal Weather Stations






























Interactive Weather Map New forecast layout! Learn more

10-Day Weather Forecast

Advertisements
Track Severe Weather on mobile